sensor_id;sensor_type;location;lat;lon;timestamp;temperature;humidity
55036;DHT22;40936;53.008;6.556;2022-09-03T00:00:53;16.10;1.00
55036;DHT22;40936;53.008;6.556;2022-09-03T00:03:43;16.00;1.00
55036;DHT22;40936;53.008;6.556;2022-09-03T00:06:20;16.00;1.00
55036;DHT22;40936;53.008;6.556;2022-09-03T00:11:51;15.80;1.00
55036;DHT22;40936;53.008;6.556;2022-09-03T00:14:31;15.70;1.00
55036;DHT22;40936;53.008;6.556;2022-09-03T00:17:06;15.70;1.00
55036;DHT22;40936;53.008;6.556;2022-09-03T00:19:45;15.70;1.00
55036;DHT22;40936;53.008;6.556;2022-09-03T00:22:19;15.60;1.00
55036;DHT22;40936;53.008;6.556;2022-09-03T00:24:46;15.50;1.00
55036;DHT22;40936;53.008;6.556;2022-09-03T00:27:17;15.50;1.00
55036;DHT22;40936;53.008;6.556;2022-09-03T00:29:54;15.40;1.00
55036;DHT22;40936;53.008;6.556;2022-09-03T00:32:58;15.40;1.00
55036;DHT22;40936;53.008;6.556;2022-09-03T00:35:30;15.30;1.00
55036;DHT22;40936;53.008;6.556;2022-09-03T00:37:57;15.20;1.00
55036;DHT22;40936;53.008;6.556;2022-09-03T00:40:41;15.20;1.00
55036;DHT22;40936;53.008;6.556;2022-09-03T00:43:12;15.10;1.00
55036;DHT22;40936;53.008;6.556;2022-09-03T00:45:54;15.10;1.00
55036;DHT22;40936;53.008;6.556;2022-09-03T00:48:25;15.00;1.00
55036;DHT22;40936;53.008;6.556;2022-09-03T00:51:05;15.00;1.00
55036;DHT22;40936;53.008;6.556;2022-09-03T00:59:22;14.80;1.00
55036;DHT22;40936;53.008;6.556;2022-09-03T01:13:06;14.70;1.00
55036;DHT22;40936;53.008;6.556;2022-09-03T01:16:04;14.70;1.00
55036;DHT22;40936;53.008;6.556;2022-09-03T01:18:48;14.70;1.00
55036;DHT22;40936;53.008;6.556;2022-09-03T01:35:20;14.60;1.00
55036;DHT22;40936;53.008;6.556;2022-09-03T01:40:45;14.50;1.00
55036;DHT22;40936;53.008;6.556;2022-09-03T01:46:25;14.50;1.00
55036;DHT22;40936;53.008;6.556;2022-09-03T01:51:45;14.50;1.00
55036;DHT22;40936;53.008;6.556;2022-09-03T01:59:56;14.50;1.00
55036;DHT22;40936;53.008;6.556;2022-09-03T02:02:25;14.50;1.00
55036;DHT22;40936;53.008;6.556;2022-09-03T02:05:04;14.50;1.00
55036;DHT22;40936;53.008;6.556;2022-09-03T02:07:38;14.50;1.00
55036;DHT22;40936;53.008;6.556;2022-09-03T02:10:16;14.50;1.00
55036;DHT22;40936;53.008;6.556;2022-09-03T02:12:47;14.50;1.00
55036;DHT22;40936;53.008;6.556;2022-09-03T02:15:16;14.50;1.00
55036;DHT22;40936;53.008;6.556;2022-09-03T02:17:45;14.50;1.00
55036;DHT22;40936;53.008;6.556;2022-09-03T02:20:16;14.60;1.00
55036;DHT22;40936;53.008;6.556;2022-09-03T02:22:45;14.60;1.00
55036;DHT22;40936;53.008;6.556;2022-09-03T02:25:12;14.60;1.00
55036;DHT22;40936;53.008;6.556;2022-09-03T02:27:38;14.60;1.00
55036;DHT22;40936;53.008;6.556;2022-09-03T02:30:04;14.60;1.00
55036;DHT22;40936;53.008;6.556;2022-09-03T02:32:31;14.60;1.00
55036;DHT22;40936;53.008;6.556;2022-09-03T02:34:57;14.60;1.00
55036;DHT22;40936;53.008;6.556;2022-09-03T02:37:23;14.60;1.00
55036;DHT22;40936;53.008;6.556;2022-09-03T02:39:49;14.60;1.00
55036;DHT22;40936;53.008;6.556;2022-09-03T02:42:17;14.70;1.00
55036;DHT22;40936;53.008;6.556;2022-09-03T02:47:43;14.80;1.00
55036;DHT22;40936;53.008;6.556;2022-09-03T02:50:09;14.80;1.00
55036;DHT22;40936;53.008;6.556;2022-09-03T02:52:35;14.90;1.00
55036;DHT22;40936;53.008;6.556;2022-09-03T02:55:01;14.90;1.00
55036;DHT22;40936;53.008;6.556;2022-09-03T02:57:26;14.90;1.00
55036;DHT22;40936;53.008;6.556;2022-09-03T02:59:53;14.90;1.00
55036;DHT22;40936;53.008;6.556;2022-09-03T03:02:18;14.90;1.00
55036;DHT22;40936;53.008;6.556;2022-09-03T03:04:44;14.90;1.00
55036;DHT22;40936;53.008;6.556;2022-09-03T03:07:10;14.90;1.00
55036;DHT22;40936;53.008;6.556;2022-09-03T03:09:35;15.00;1.00
55036;DHT22;40936;53.008;6.556;2022-09-03T03:12:01;15.00;1.00
55036;DHT22;40936;53.008;6.556;2022-09-03T03:14:27;15.00;1.00
55036;DHT22;40936;53.008;6.556;2022-09-03T03:16:53;15.00;1.00
55036;DHT22;40936;53.008;6.556;2022-09-03T03:19:19;15.00;1.00
55036;DHT22;40936;53.008;6.556;2022-09-03T03:21:44;15.00;1.00
55036;DHT22;40936;53.008;6.556;2022-09-03T03:24:10;15.10;1.00
55036;DHT22;40936;53.008;6.556;2022-09-03T03:26:36;15.00;1.00
55036;DHT22;40936;53.008;6.556;2022-09-03T03:29:02;15.00;1.00
55036;DHT22;40936;53.008;6.556;2022-09-03T03:31:31;15.00;1.00
55036;DHT22;40936;53.008;6.556;2022-09-03T03:34:00;15.10;1.00
55036;DHT22;40936;53.008;6.556;2022-09-03T03:36:29;15.00;1.00
55036;DHT22;40936;53.008;6.556;2022-09-03T03:38:56;15.00;1.00
55036;DHT22;40936;53.008;6.556;2022-09-03T03:41:26;15.00;1.00
55036;DHT22;40936;53.008;6.556;2022-09-03T03:43:57;15.00;1.00
55036;DHT22;40936;53.008;6.556;2022-09-03T03:46:24;15.00;1.00
55036;DHT22;40936;53.008;6.556;2022-09-03T03:48:52;15.00;1.00
55036;DHT22;40936;53.008;6.556;2022-09-03T03:51:18;15.00;1.00
55036;DHT22;40936;53.008;6.556;2022-09-03T03:53:44;14.90;1.00
55036;DHT22;40936;53.008;6.556;2022-09-03T03:56:12;14.90;1.00
55036;DHT22;40936;53.008;6.556;2022-09-03T03:58:39;14.90;1.00
55036;DHT22;40936;53.008;6.556;2022-09-03T04:01:16;14.90;1.00
55036;DHT22;40936;53.008;6.556;2022-09-03T04:03:43;14.90;1.00
55036;DHT22;40936;53.008;6.556;2022-09-03T04:06:10;14.90;1.00
55036;DHT22;40936;53.008;6.556;2022-09-03T04:08:38;14.90;1.00
55036;DHT22;40936;53.008;6.556;2022-09-03T04:11:07;14.80;1.00
55036;DHT22;40936;53.008;6.556;2022-09-03T04:13:36;14.80;1.00
55036;DHT22;40936;53.008;6.556;2022-09-03T04:16:07;14.80;1.00
55036;DHT22;40936;53.008;6.556;2022-09-03T04:18:34;14.80;1.00
55036;DHT22;40936;53.008;6.556;2022-09-03T04:21:35;14.80;1.00
55036;DHT22;40936;53.008;6.556;2022-09-03T04:24:03;14.70;1.00
55036;DHT22;40936;53.008;6.556;2022-09-03T04:26:31;14.30;1.00
55036;DHT22;40936;53.008;6.556;2022-09-03T04:29:07;14.60;1.00
55036;DHT22;40936;53.008;6.556;2022-09-03T04:31:34;14.60;1.00
55036;DHT22;40936;53.008;6.556;2022-09-03T04:34:00;14.50;1.00
55036;DHT22;40936;53.008;6.556;2022-09-03T04:36:28;14.50;1.00
55036;DHT22;40936;53.008;6.556;2022-09-03T04:38:57;14.50;1.00
55036;DHT22;40936;53.008;6.556;2022-09-03T04:41:26;14.90;1.00
55036;DHT22;40936;53.008;6.556;2022-09-03T04:43:54;14.40;1.00
55036;DHT22;40936;53.008;6.556;2022-09-03T04:46:22;14.40;1.00
55036;DHT22;40936;53.008;6.556;2022-09-03T04:48:50;14.40;1.00
55036;DHT22;40936;53.008;6.556;2022-09-03T04:51:19;14.40;1.00
55036;DHT22;40936;53.008;6.556;2022-09-03T04:53:46;14.40;1.00
55036;DHT22;40936;53.008;6.556;2022-09-03T04:56:17;14.40;1.00
55036;DHT22;40936;53.008;6.556;2022-09-03T04:58:43;14.40;1.00
55036;DHT22;40936;53.008;6.556;2022-09-03T05:01:11;14.40;1.00
55036;DHT22;40936;53.008;6.556;2022-09-03T05:03:37;14.40;1.00
55036;DHT22;40936;53.008;6.556;2022-09-03T05:06:03;14.40;1.00
55036;DHT22;40936;53.008;6.556;2022-09-03T05:08:30;14.40;1.00
55036;DHT22;40936;53.008;6.556;2022-09-03T05:10:59;14.40;1.00
55036;DHT22;40936;53.008;6.556;2022-09-03T05:13:26;14.40;1.00
55036;DHT22;40936;53.008;6.556;2022-09-03T05:15:58;15.30;1.00
55036;DHT22;40936;53.008;6.556;2022-09-03T05:18:24;14.40;1.00
55036;DHT22;40936;53.008;6.556;2022-09-03T05:20:57;14.40;1.00
55036;DHT22;40936;53.008;6.556;2022-09-03T05:23:25;14.40;1.00
55036;DHT22;40936;53.008;6.556;2022-09-03T05:25:59;14.30;1.00
55036;DHT22;40936;53.008;6.556;2022-09-03T05:28:26;14.40;1.00
55036;DHT22;40936;53.008;6.556;2022-09-03T05:31:03;14.30;1.00
55036;DHT22;40936;53.008;6.556;2022-09-03T05:33:33;14.40;1.00
55036;DHT22;40936;53.008;6.556;2022-09-03T05:36:04;14.30;1.00
55036;DHT22;40936;53.008;6.556;2022-09-03T05:38:31;14.30;1.00
55036;DHT22;40936;53.008;6.556;2022-09-03T05:40:58;14.40;1.00
55036;DHT22;40936;53.008;6.556;2022-09-03T05:43:26;14.70;1.00
55036;DHT22;40936;53.008;6.556;2022-09-03T05:45:59;14.50;1.00
55036;DHT22;40936;53.008;6.556;2022-09-03T05:48:26;14.50;1.00
55036;DHT22;40936;53.008;6.556;2022-09-03T05:51:18;14.50;1.00
55036;DHT22;40936;53.008;6.556;2022-09-03T05:53:46;14.60;1.00
55036;DHT22;40936;53.008;6.556;2022-09-03T05:56:21;14.50;1.00
55036;DHT22;40936;53.008;6.556;2022-09-03T05:58:50;14.50;1.00
55036;DHT22;40936;53.008;6.556;2022-09-03T06:01:21;14.50;1.00
55036;DHT22;40936;53.008;6.556;2022-09-03T06:03:53;14.50;1.00
55036;DHT22;40936;53.008;6.556;2022-09-03T06:06:20;14.50;1.00
55036;DHT22;40936;53.008;6.556;2022-09-03T06:08:57;14.50;1.00
55036;DHT22;40936;53.008;6.556;2022-09-03T06:11:25;14.50;1.00
55036;DHT22;40936;53.008;6.556;2022-09-03T06:13:56;14.50;1.00
55036;DHT22;40936;53.008;6.556;2022-09-03T06:16:23;14.50;1.00
55036;DHT22;40936;53.008;6.556;2022-09-03T06:18:50;14.60;1.00
55036;DHT22;40936;53.008;6.556;2022-09-03T06:21:15;14.70;1.00
55036;DHT22;40936;53.008;6.556;2022-09-03T06:23:41;14.70;1.00
55036;DHT22;40936;53.008;6.556;2022-09-03T06:26:12;14.80;1.00
55036;DHT22;40936;53.008;6.556;2022-09-03T06:28:39;14.90;1.00
55036;DHT22;40936;53.008;6.556;2022-09-03T06:31:09;14.90;1.00
55036;DHT22;40936;53.008;6.556;2022-09-03T06:33:36;15.00;1.00
55036;DHT22;40936;53.008;6.556;2022-09-03T06:36:04;15.00;1.00
55036;DHT22;40936;53.008;6.556;2022-09-03T06:38:32;15.00;1.00
55036;DHT22;40936;53.008;6.556;2022-09-03T06:41:01;15.10;1.00
55036;DHT22;40936;53.008;6.556;2022-09-03T06:43:29;15.10;1.00
55036;DHT22;40936;53.008;6.556;2022-09-03T06:46:03;15.20;1.00
55036;DHT22;40936;53.008;6.556;2022-09-03T06:48:30;15.20;1.00
55036;DHT22;40936;53.008;6.556;2022-09-03T06:50:58;15.30;1.00
55036;DHT22;40936;53.008;6.556;2022-09-03T06:53:26;15.70;1.00
55036;DHT22;40936;53.008;6.556;2022-09-03T06:55:53;15.50;1.00
55036;DHT22;40936;53.008;6.556;2022-09-03T06:58:20;15.60;1.00
55036;DHT22;40936;53.008;6.556;2022-09-03T07:00:46;15.70;1.00
55036;DHT22;40936;53.008;6.556;2022-09-03T07:03:13;15.80;1.00
55036;DHT22;40936;53.008;6.556;2022-09-03T07:05:39;15.80;1.00
55036;DHT22;40936;53.008;6.556;2022-09-03T07:08:04;15.80;1.00
55036;DHT22;40936;53.008;6.556;2022-09-03T07:10:30;15.90;1.00
55036;DHT22;40936;53.008;6.556;2022-09-03T07:12:58;16.00;1.00
55036;DHT22;40936;53.008;6.556;2022-09-03T07:15:24;16.10;1.00
55036;DHT22;40936;53.008;6.556;2022-09-03T07:17:51;16.10;1.00
55036;DHT22;40936;53.008;6.556;2022-09-03T07:20:16;16.10;1.00
55036;DHT22;40936;53.008;6.556;2022-09-03T07:22:42;16.20;1.00
55036;DHT22;40936;53.008;6.556;2022-09-03T07:25:08;16.30;1.00
55036;DHT22;40936;53.008;6.556;2022-09-03T07:27:34;16.30;1.00
55036;DHT22;40936;53.008;6.556;2022-09-03T07:30:00;16.40;1.00
55036;DHT22;40936;53.008;6.556;2022-09-03T07:32:27;16.50;1.00
55036;DHT22;40936;53.008;6.556;2022-09-03T07:34:53;17.60;1.00
55036;DHT22;40936;53.008;6.556;2022-09-03T07:37:18;19.10;1.00
55036;DHT22;40936;53.008;6.556;2022-09-03T07:39:44;20.70;1.00
55036;DHT22;40936;53.008;6.556;2022-09-03T07:42:11;21.90;1.00
55036;DHT22;40936;53.008;6.556;2022-09-03T07:44:37;23.10;1.00
55036;DHT22;40936;53.008;6.556;2022-09-03T07:47:02;24.30;1.00
55036;DHT22;40936;53.008;6.556;2022-09-03T07:49:28;25.10;1.00
55036;DHT22;40936;53.008;6.556;2022-09-03T07:51:57;25.60;99.90
55036;DHT22;40936;53.008;6.556;2022-09-03T07:54:23;26.50;99.90
55036;DHT22;40936;53.008;6.556;2022-09-03T07:56:51;26.70;99.90
55036;DHT22;40936;53.008;6.556;2022-09-03T07:59:16;26.90;99.90
55036;DHT22;40936;53.008;6.556;2022-09-03T08:01:43;26.80;99.90
55036;DHT22;40936;53.008;6.556;2022-09-03T08:04:09;26.80;99.90
55036;DHT22;40936;53.008;6.556;2022-09-03T08:06:39;26.80;99.90
55036;DHT22;40936;53.008;6.556;2022-09-03T08:09:07;27.60;99.90
55036;DHT22;40936;53.008;6.556;2022-09-03T08:11:36;27.80;99.90
55036;DHT22;40936;53.008;6.556;2022-09-03T08:14:08;27.80;99.90
55036;DHT22;40936;53.008;6.556;2022-09-03T08:16:36;28.20;99.90
55036;DHT22;40936;53.008;6.556;2022-09-03T08:19:03;28.60;99.90
55036;DHT22;40936;53.008;6.556;2022-09-03T08:21:30;28.40;99.90
55036;DHT22;40936;53.008;6.556;2022-09-03T08:23:56;28.70;99.90
55036;DHT22;40936;53.008;6.556;2022-09-03T08:26:30;28.20;99.90
55036;DHT22;40936;53.008;6.556;2022-09-03T08:28:56;28.30;99.90
55036;DHT22;40936;53.008;6.556;2022-09-03T08:31:23;29.00;99.90
55036;DHT22;40936;53.008;6.556;2022-09-03T08:33:53;29.00;99.90
55036;DHT22;40936;53.008;6.556;2022-09-03T08:36:28;28.70;99.90
55036;DHT22;40936;53.008;6.556;2022-09-03T08:38:59;28.30;99.90
55036;DHT22;40936;53.008;6.556;2022-09-03T08:49:44;31.70;99.90
55036;DHT22;40936;53.008;6.556;2022-09-03T08:57:50;31.90;99.90
55036;DHT22;40936;53.008;6.556;2022-09-03T09:00:16;32.30;99.90
55036;DHT22;40936;53.008;6.556;2022-09-03T09:05:49;32.80;99.90
55036;DHT22;40936;53.008;6.556;2022-09-03T09:14:01;32.40;99.90
55036;DHT22;40936;53.008;6.556;2022-09-03T09:19:45;32.50;99.90
55036;DHT22;40936;53.008;6.556;2022-09-03T09:25:00;33.20;99.90
55036;DHT22;40936;53.008;6.556;2022-09-03T09:27:29;34.10;99.90
55036;DHT22;40936;53.008;6.556;2022-09-03T09:30:00;34.00;99.90
55036;DHT22;40936;53.008;6.556;2022-09-03T09:32:28;33.30;99.90
55036;DHT22;40936;53.008;6.556;2022-09-03T09:34:58;33.50;99.90
55036;DHT22;40936;53.008;6.556;2022-09-03T09:37:24;34.10;99.90
55036;DHT22;40936;53.008;6.556;2022-09-03T09:39:58;34.90;99.90
55036;DHT22;40936;53.008;6.556;2022-09-03T09:42:27;35.50;99.90
55036;DHT22;40936;53.008;6.556;2022-09-03T09:45:08;35.10;99.90
55036;DHT22;40936;53.008;6.556;2022-09-03T09:47:38;35.80;99.90
55036;DHT22;40936;53.008;6.556;2022-09-03T09:50:18;36.50;99.90
55036;DHT22;40936;53.008;6.556;2022-09-03T09:52:46;35.80;99.90
55036;DHT22;40936;53.008;6.556;2022-09-03T09:55:17;35.60;99.90
55036;DHT22;40936;53.008;6.556;2022-09-03T09:58:05;36.40;99.90
55036;DHT22;40936;53.008;6.556;2022-09-03T10:00:33;35.80;99.90
55036;DHT22;40936;53.008;6.556;2022-09-03T10:03:08;35.80;99.90
55036;DHT22;40936;53.008;6.556;2022-09-03T10:05:35;36.30;99.90
55036;DHT22;40936;53.008;6.556;2022-09-03T10:08:19;36.50;99.90
55036;DHT22;40936;53.008;6.556;2022-09-03T10:10:52;36.60;99.90
55036;DHT22;40936;53.008;6.556;2022-09-03T10:13:23;36.60;99.90
55036;DHT22;40936;53.008;6.556;2022-09-03T10:16:43;36.50;99.90
55036;DHT22;40936;53.008;6.556;2022-09-03T10:18:59;35.80;99.90
55036;DHT22;40936;53.008;6.556;2022-09-03T10:21:44;35.20;99.90
55036;DHT22;40936;53.008;6.556;2022-09-03T10:24:43;34.90;99.90
55036;DHT22;40936;53.008;6.556;2022-09-03T10:27:16;35.00;99.90
55036;DHT22;40936;53.008;6.556;2022-09-03T10:29:43;35.40;99.90
55036;DHT22;40936;53.008;6.556;2022-09-03T10:32:21;34.00;99.90
55036;DHT22;40936;53.008;6.556;2022-09-03T10:35:31;34.30;99.90
55036;DHT22;40936;53.008;6.556;2022-09-03T10:38:16;34.30;99.90
55036;DHT22;40936;53.008;6.556;2022-09-03T10:41:09;34.00;99.90
55036;DHT22;40936;53.008;6.556;2022-09-03T10:44:10;34.30;99.90
55036;DHT22;40936;53.008;6.556;2022-09-03T10:47:06;34.00;99.90
55036;DHT22;40936;53.008;6.556;2022-09-03T11:11:22;35.10;99.90
55036;DHT22;40936;53.008;6.556;2022-09-03T11:14:08;34.80;99.90
55036;DHT22;40936;53.008;6.556;2022-09-03T11:16:47;34.70;99.90
55036;DHT22;40936;53.008;6.556;2022-09-03T11:19:17;34.90;99.90
55036;DHT22;40936;53.008;6.556;2022-09-03T11:21:46;34.30;99.90
55036;DHT22;40936;53.008;6.556;2022-09-03T11:24:22;34.90;99.90
55036;DHT22;40936;53.008;6.556;2022-09-03T11:27:18;35.50;99.90
55036;DHT22;40936;53.008;6.556;2022-09-03T11:29:57;36.40;99.90
55036;DHT22;40936;53.008;6.556;2022-09-03T11:38:01;35.60;99.90
55036;DHT22;40936;53.008;6.556;2022-09-03T11:40:38;35.70;99.90
55036;DHT22;40936;53.008;6.556;2022-09-03T11:48:47;35.50;99.90
55036;DHT22;40936;53.008;6.556;2022-09-03T11:51:33;35.20;99.90
55036;DHT22;40936;53.008;6.556;2022-09-03T11:56:33;34.50;99.90
55036;DHT22;40936;53.008;6.556;2022-09-03T12:01:42;35.90;99.90
55036;DHT22;40936;53.008;6.556;2022-09-03T12:04:13;36.30;99.90
55036;DHT22;40936;53.008;6.556;2022-09-03T12:16:17;36.90;99.90
55036;DHT22;40936;53.008;6.556;2022-09-03T12:18:46;35.10;99.90
55036;DHT22;40936;53.008;6.556;2022-09-03T12:21:20;34.30;99.90
55036;DHT22;40936;53.008;6.556;2022-09-03T12:23:47;33.90;99.90
55036;DHT22;40936;53.008;6.556;2022-09-03T12:26:16;33.10;99.90
55036;DHT22;40936;53.008;6.556;2022-09-03T12:28:46;31.90;99.90
55036;DHT22;40936;53.008;6.556;2022-09-03T12:31:18;31.30;99.90
55036;DHT22;40936;53.008;6.556;2022-09-03T12:33:54;30.70;99.90
55036;DHT22;40936;53.008;6.556;2022-09-03T12:43:37;29.00;99.90
55036;DHT22;40936;53.008;6.556;2022-09-03T12:46:03;28.60;99.90
55036;DHT22;40936;53.008;6.556;2022-09-03T12:48:30;28.30;99.90
55036;DHT22;40936;53.008;6.556;2022-09-03T12:51:02;28.10;99.90
55036;DHT22;40936;53.008;6.556;2022-09-03T12:53:34;28.00;99.90
55036;DHT22;40936;53.008;6.556;2022-09-03T12:56:09;27.90;99.90
55036;DHT22;40936;53.008;6.556;2022-09-03T13:01:17;27.70;99.90
55036;DHT22;40936;53.008;6.556;2022-09-03T13:03:56;27.60;99.90
55036;DHT22;40936;53.008;6.556;2022-09-03T13:08:03;27.60;99.90
55036;DHT22;40936;53.008;6.556;2022-09-03T13:10:35;27.50;99.90
55036;DHT22;40936;53.008;6.556;2022-09-03T13:13:24;27.20;99.90
55036;DHT22;40936;53.008;6.556;2022-09-03T13:18:59;27.10;99.90
55036;DHT22;40936;53.008;6.556;2022-09-03T13:27:58;26.70;99.90
55036;DHT22;40936;53.008;6.556;2022-09-03T13:31:05;26.60;99.90
55036;DHT22;40936;53.008;6.556;2022-09-03T13:33:40;26.60;99.90
55036;DHT22;40936;53.008;6.556;2022-09-03T13:36:20;26.30;99.90
55036;DHT22;40936;53.008;6.556;2022-09-03T13:39:46;26.40;99.90
55036;DHT22;40936;53.008;6.556;2022-09-03T13:42:19;26.40;99.90
55036;DHT22;40936;53.008;6.556;2022-09-03T13:45:00;26.60;99.90
55036;DHT22;40936;53.008;6.556;2022-09-03T13:50:43;26.30;99.90
55036;DHT22;40936;53.008;6.556;2022-09-03T13:56:24;25.60;99.90
55036;DHT22;40936;53.008;6.556;2022-09-03T13:58:59;26.10;99.90
55036;DHT22;40936;53.008;6.556;2022-09-03T14:07:26;26.00;99.90
55036;DHT22;40936;53.008;6.556;2022-09-03T14:10:22;26.10;99.90
55036;DHT22;40936;53.008;6.556;2022-09-03T14:15:35;26.00;99.90
55036;DHT22;40936;53.008;6.556;2022-09-03T14:18:32;25.90;99.90
55036;DHT22;40936;53.008;6.556;2022-09-03T14:21:12;25.90;99.90
55036;DHT22;40936;53.008;6.556;2022-09-03T14:23:46;25.80;99.90
55036;DHT22;40936;53.008;6.556;2022-09-03T14:26:34;25.80;99.90
55036;DHT22;40936;53.008;6.556;2022-09-03T14:29:15;25.80;99.90
55036;DHT22;40936;53.008;6.556;2022-09-03T14:34:41;25.70;99.90
55036;DHT22;40936;53.008;6.556;2022-09-03T14:37:47;25.70;99.90
55036;DHT22;40936;53.008;6.556;2022-09-03T14:51:04;25.50;99.90
55036;DHT22;40936;53.008;6.556;2022-09-03T15:10:36;25.60;99.90
55036;DHT22;40936;53.008;6.556;2022-09-03T15:13:28;25.50;99.90
55036;DHT22;40936;53.008;6.556;2022-09-03T15:22:03;25.30;99.90
55036;DHT22;40936;53.008;6.556;2022-09-03T15:35:08;25.10;99.90
55036;DHT22;40936;53.008;6.556;2022-09-03T15:37:51;25.10;99.90
55036;DHT22;40936;53.008;6.556;2022-09-03T15:40:35;25.10;99.90
55036;DHT22;40936;53.008;6.556;2022-09-03T15:45:40;24.90;99.90
55036;DHT22;40936;53.008;6.556;2022-09-03T15:54:55;25.00;99.90
55036;DHT22;40936;53.008;6.556;2022-09-03T16:03:11;25.00;99.90
55036;DHT22;40936;53.008;6.556;2022-09-03T16:06:04;25.00;99.90
55036;DHT22;40936;53.008;6.556;2022-09-03T16:08:56;25.00;99.90
55036;DHT22;40936;53.008;6.556;2022-09-03T16:12:19;25.00;99.90
55036;DHT22;40936;53.008;6.556;2022-09-03T16:14:43;24.70;99.90
55036;DHT22;40936;53.008;6.556;2022-09-03T16:20:06;24.80;99.90
55036;DHT22;40936;53.008;6.556;2022-09-03T16:25:13;24.60;99.90
55036;DHT22;40936;53.008;6.556;2022-09-03T16:28:03;24.50;99.90
55036;DHT22;40936;53.008;6.556;2022-09-03T16:33:55;24.50;99.90
55036;DHT22;40936;53.008;6.556;2022-09-03T16:45:08;24.50;99.90
55036;DHT22;40936;53.008;6.556;2022-09-03T16:47:51;24.50;99.90
55036;DHT22;40936;53.008;6.556;2022-09-03T16:58:21;23.40;99.90
55036;DHT22;40936;53.008;6.556;2022-09-03T17:01:12;24.20;99.90
55036;DHT22;40936;53.008;6.556;2022-09-03T17:06:15;24.00;99.90
55036;DHT22;40936;53.008;6.556;2022-09-03T17:11:52;24.00;99.90
55036;DHT22;40936;53.008;6.556;2022-09-03T17:22:20;23.60;99.90
55036;DHT22;40936;53.008;6.556;2022-09-03T17:24:51;23.50;99.90
55036;DHT22;40936;53.008;6.556;2022-09-03T17:28:01;23.20;99.90
55036;DHT22;40936;53.008;6.556;2022-09-03T17:36:17;23.00;99.90
55036;DHT22;40936;53.008;6.556;2022-09-03T17:50:06;22.50;99.90
55036;DHT22;40936;53.008;6.556;2022-09-03T17:52:49;22.30;99.90
55036;DHT22;40936;53.008;6.556;2022-09-03T17:55:39;22.20;99.90
55036;DHT22;40936;53.008;6.556;2022-09-03T18:00:59;22.00;99.90
55036;DHT22;40936;53.008;6.556;2022-09-03T18:03:51;21.50;99.90
55036;DHT22;40936;53.008;6.556;2022-09-03T18:11:52;21.50;99.90
55036;DHT22;40936;53.008;6.556;2022-09-03T18:14:29;21.50;99.90
55036;DHT22;40936;53.008;6.556;2022-09-03T18:17:07;21.30;99.90
55036;DHT22;40936;53.008;6.556;2022-09-03T18:19:38;21.30;99.90
55036;DHT22;40936;53.008;6.556;2022-09-03T18:25:38;21.00;99.90
55036;DHT22;40936;53.008;6.556;2022-09-03T18:28:34;20.90;99.90
55036;DHT22;40936;53.008;6.556;2022-09-03T18:31:22;20.90;99.90
55036;DHT22;40936;53.008;6.556;2022-09-03T18:34:07;20.70;99.90
55036;DHT22;40936;53.008;6.556;2022-09-03T18:36:52;20.70;99.90
55036;DHT22;40936;53.008;6.556;2022-09-03T18:39:40;20.60;99.90
55036;DHT22;40936;53.008;6.556;2022-09-03T18:45:57;20.40;1.00
55036;DHT22;40936;53.008;6.556;2022-09-03T19:00:35;20.10;1.00
55036;DHT22;40936;53.008;6.556;2022-09-03T19:15:51;19.70;1.00
55036;DHT22;40936;53.008;6.556;2022-09-03T19:22:21;19.50;1.00
55036;DHT22;40936;53.008;6.556;2022-09-03T19:25:06;19.40;1.00
55036;DHT22;40936;53.008;6.556;2022-09-03T19:28:04;19.40;1.00
55036;DHT22;40936;53.008;6.556;2022-09-03T19:52:20;19.10;1.00
55036;DHT22;40936;53.008;6.556;2022-09-03T19:55:15;19.10;1.00
55036;DHT22;40936;53.008;6.556;2022-09-03T19:58:02;19.00;1.00
55036;DHT22;40936;53.008;6.556;2022-09-03T20:00:50;19.00;1.00
55036;DHT22;40936;53.008;6.556;2022-09-03T20:03:35;19.00;1.00
55036;DHT22;40936;53.008;6.556;2022-09-03T20:06:20;19.00;1.00
55036;DHT22;40936;53.008;6.556;2022-09-03T20:09:08;19.00;1.00
55036;DHT22;40936;53.008;6.556;2022-09-03T20:12:02;19.00;1.00
55036;DHT22;40936;53.008;6.556;2022-09-03T20:14:36;19.00;1.00
55036;DHT22;40936;53.008;6.556;2022-09-03T20:17:17;18.80;1.00
55036;DHT22;40936;53.008;6.556;2022-09-03T20:22:49;18.90;1.00
55036;DHT22;40936;53.008;6.556;2022-09-03T20:31:25;18.70;1.00
55036;DHT22;40936;53.008;6.556;2022-09-03T20:34:24;18.60;1.00
55036;DHT22;40936;53.008;6.556;2022-09-03T20:42:44;18.40;1.00
55036;DHT22;40936;53.008;6.556;2022-09-03T20:45:25;18.40;1.00
55036;DHT22;40936;53.008;6.556;2022-09-03T20:48:20;18.40;1.00
55036;DHT22;40936;53.008;6.556;2022-09-03T20:51:13;18.30;1.00
55036;DHT22;40936;53.008;6.556;2022-09-03T20:54:03;18.30;1.00
55036;DHT22;40936;53.008;6.556;2022-09-03T20:59:36;18.20;1.00
55036;DHT22;40936;53.008;6.556;2022-09-03T21:02:28;18.10;1.00
55036;DHT22;40936;53.008;6.556;2022-09-03T21:10:33;18.00;1.00
55036;DHT22;40936;53.008;6.556;2022-09-03T21:21:57;17.80;1.00
55036;DHT22;40936;53.008;6.556;2022-09-03T21:24:51;17.70;1.00
55036;DHT22;40936;53.008;6.556;2022-09-03T21:27:25;17.70;1.00
55036;DHT22;40936;53.008;6.556;2022-09-03T21:30:05;17.60;1.00
55036;DHT22;40936;53.008;6.556;2022-09-03T21:32:51;17.60;1.00
55036;DHT22;40936;53.008;6.556;2022-09-03T21:37:57;17.50;1.00
55036;DHT22;40936;53.008;6.556;2022-09-03T21:40:27;17.40;1.00
55036;DHT22;40936;53.008;6.556;2022-09-03T21:43:10;17.40;1.00
55036;DHT22;40936;53.008;6.556;2022-09-03T21:45:50;17.30;1.00
55036;DHT22;40936;53.008;6.556;2022-09-03T21:48:33;17.30;1.00
55036;DHT22;40936;53.008;6.556;2022-09-03T21:51:06;17.40;1.00
55036;DHT22;40936;53.008;6.556;2022-09-03T21:53:45;17.40;1.00
55036;DHT22;40936;53.008;6.556;2022-09-03T21:56:51;17.30;1.00
55036;DHT22;40936;53.008;6.556;2022-09-03T22:04:46;17.20;1.00
55036;DHT22;40936;53.008;6.556;2022-09-03T22:15:02;17.10;1.00
55036;DHT22;40936;53.008;6.556;2022-09-03T22:20:27;17.10;1.00
55036;DHT22;40936;53.008;6.556;2022-09-03T22:23:02;17.00;1.00
55036;DHT22;40936;53.008;6.556;2022-09-03T22:31:36;16.90;1.00
55036;DHT22;40936;53.008;6.556;2022-09-03T22:36:50;16.80;1.00
55036;DHT22;40936;53.008;6.556;2022-09-03T22:50:30;16.60;1.00
55036;DHT22;40936;53.008;6.556;2022-09-03T22:53:19;16.60;1.00
55036;DHT22;40936;53.008;6.556;2022-09-03T22:56:12;16.50;1.00
55036;DHT22;40936;53.008;6.556;2022-09-03T22:59:02;16.40;1.00
55036;DHT22;40936;53.008;6.556;2022-09-03T23:01:43;16.20;1.00
55036;DHT22;40936;53.008;6.556;2022-09-03T23:07:08;16.40;1.00
55036;DHT22;40936;53.008;6.556;2022-09-03T23:09:39;16.40;1.00
55036;DHT22;40936;53.008;6.556;2022-09-03T23:12:25;16.30;1.00
55036;DHT22;40936;53.008;6.556;2022-09-03T23:14:54;16.30;1.00
55036;DHT22;40936;53.008;6.556;2022-09-03T23:17:49;16.30;1.00
55036;DHT22;40936;53.008;6.556;2022-09-03T23:20:20;16.20;1.00
55036;DHT22;40936;53.008;6.556;2022-09-03T23:23:17;16.30;1.00
55036;DHT22;40936;53.008;6.556;2022-09-03T23:25:50;16.10;1.00